Terminal Aerodrome Forecast
Issued by NWS Cleveland, OH

Home | Current Version | Previous Version | Text Only | Print | Product List | Glossary Off
Versions: 1 2 3 4 5 6 7 8 9 10 11 12 13 14 15 16 17 18 19 20 21

000
FTUS41 KCLE 201200 AAA
TAFMFD
TAF AMD
KMFD 201230Z 2013/2112 18010KT 4SM BR SCT005
     FM201330 19012KT P6SM SCT005 BKN250
     FM201500 20015G25KT P6SM SCT045 BKN250
     FM202300 20010KT P6SM BKN045
     FM210300 22010KT P6SM VCTS BKN045CB
      TEMPO 2105/2108 3SM TSRA OVC035CB
     FM211000 22010KT P6SM OVC030=

USA.gov is the U.S. government's official web portal to all federal, state and local government web resources and services.